Time;durP1;ratioP1;P1;durP2;ratioP2;P2;SDS_P1;SDS_P2;PMS_P1;PMS_P2;Temp;Humidity;BMP_temperature;BMP_pressure;BME280_temperature;BME280_humidity;BME280_pressure;Samples;Min_cycle;Max_cycle;Signal;HPM_P1;HPM_P2
2021/05/06 00:29:39;;;;;;;4.20;1.27;;;;;;;;;;4999863;28;20426;-80
2021/05/06 00:34:04;;;;;;;1.17;0.73;;;;;;;;;;5005864;28;20042;-81
2021/05/06 00:36:32;;;;;;;1.80;0.80;;;;;;;;;;4997249;28;20022;-80
2021/05/06 00:39:03;;;;;;;3.22;0.65;;;;;;;;;;4994274;28;20033;-80
2021/05/06 00:41:47;;;;;;;2.20;0.80;;;;;;;;;;4995342;28;20025;-80
2021/05/06 01:00:45;;;;;;;1.45;0.75;;;;;;;;;;4985280;28;20407;-82
2021/05/06 01:03:32;;;;;;;3.22;0.77;;;;;;;;;;4978577;28;20584;-80
2021/05/06 01:06:08;;;;;;;3.70;0.90;;;;;;;;;;4992244;28;20037;-81
2021/05/06 01:08:41;;;;;;;1.73;0.70;;;;;;;;;;4978364;28;20122;-80
2021/05/06 01:13:34;;;;;;;3.58;1.00;;;;;;;;;;5003569;28;20034;-81
2021/05/06 01:16:00;;;;;;;2.30;0.98;;;;;;;;;;4991338;28;20027;-81
2021/05/06 01:18:26;;;;;;;1.42;0.80;;;;;;;;;;5007349;28;20029;-81
2021/05/06 01:20:59;;;;;;;1.73;1.08;;;;;;;;;;4980651;28;20031;-82
2021/05/06 01:23:27;;;;;;;1.80;1.02;;;;;;;;;;4993098;28;20030;-82
2021/05/06 01:26:12;;;;;;;1.92;1.27;;;;;;;;;;4978079;28;20038;-81
2021/05/06 01:28:41;;;;;;;3.03;1.08;;;;;;;;;;4974437;28;20089;-80
2021/05/06 01:31:12;;;;;;;2.03;0.80;;;;;;;;;;5006930;28;20025;-81
2021/05/06 01:36:09;;;;;;;4.13;1.08;;;;;;;;;;4992875;28;20100;-81
2021/05/06 02:00:08;;;;;;;2.60;0.90;;;;;;;;;;4994378;28;20041;-81
2021/05/06 02:02:34;;;;;;;2.35;0.73;;;;;;;;;;4994483;28;20375;-81
2021/05/06 02:05:00;;;;;;;3.60;1.05;;;;;;;;;;4994621;28;20117;-81
2021/05/06 02:07:26;;;;;;;2.42;0.88;;;;;;;;;;4991837;28;20022;-80
2021/05/06 02:09:52;;;;;;;1.00;0.70;;;;;;;;;;4992803;28;20030;-81
2021/05/06 02:12:19;;;;;;;2.95;0.90;;;;;;;;;;5003939;28;20036;-81
2021/05/06 02:14:54;;;;;;;2.63;0.90;;;;;;;;;;4994959;28;20030;-80
2021/05/06 02:17:20;;;;;;;3.38;1.00;;;;;;;;;;4979775;28;20053;-81
2021/05/06 02:19:48;;;;;;;2.50;1.00;;;;;;;;;;4997028;28;20018;-79
2021/05/06 02:22:15;;;;;;;1.55;1.05;;;;;;;;;;4975772;28;20032;-80
2021/05/06 02:24:42;;;;;;;3.92;1.10;;;;;;;;;;4998878;28;20026;-80
2021/05/06 02:27:07;;;;;;;2.20;1.00;;;;;;;;;;4998859;28;20437;-82
2021/05/06 02:29:33;;;;;;;3.10;0.80;;;;;;;;;;5001708;28;20031;-82
2021/05/06 02:31:59;;;;;;;2.17;0.95;;;;;;;;;;4996990;28;20462;-80
2021/05/06 02:34:25;;;;;;;2.55;1.20;;;;;;;;;;4996008;28;20033;-80
2021/05/06 02:36:51;;;;;;;2.80;0.80;;;;;;;;;;4995741;28;20026;-80
2021/05/06 02:39:17;;;;;;;2.70;1.08;;;;;;;;;;4999238;28;20048;-80
2021/05/06 02:41:43;;;;;;;3.40;1.00;;;;;;;;;;4998265;28;20081;-80
2021/05/06 02:44:09;;;;;;;4.80;1.10;;;;;;;;;;4997740;28;20045;-80
2021/05/06 02:46:35;;;;;;;3.92;1.05;;;;;;;;;;4995692;28;20080;-80
2021/05/06 02:49:01;;;;;;;1.88;1.00;;;;;;;;;;5009345;28;20471;-81
2021/05/06 02:51:37;;;;;;;1.23;0.80;;;;;;;;;;4999714;28;20030;-81
2021/05/06 02:54:04;;;;;;;2.92;1.20;;;;;;;;;;4997935;28;20042;-81
2021/05/06 03:04:10;;;;;;;2.40;0.80;;;;;;;;;;4977196;28;20053;-80
2021/05/06 03:06:47;;;;;;;2.75;0.80;;;;;;;;;;4998687;28;20487;-81
2021/05/06 03:12:11;;;;;;;1.30;0.82;;;;;;;;;;5001361;28;20267;-81
2021/05/06 03:22:58;;;;;;;2.70;0.93;;;;;;;;;;4990857;28;20558;-80
2021/05/06 03:25:26;;;;;;;1.70;0.90;;;;;;;;;;4991564;28;20023;-81
2021/05/06 03:43:42;;;;;;;2.20;1.10;;;;;;;;;;4980300;28;20130;-80
2021/05/06 03:48:59;;;;;;;3.63;1.25;;;;;;;;;;5011569;28;20491;-82
2021/05/06 04:37:39;;;;;;;4.32;1.10;;;;;;;;;;4970917;28;20113;-81
2021/05/06 04:46:00;;;;;;;2.67;1.40;;;;;;;;;;4998134;28;20038;-81
2021/05/06 04:56:07;;;;;;;2.13;1.27;;;;;;;;;;4995570;28;20034;-81
2021/05/06 05:06:19;;;;;;;6.32;1.55;;;;;;;;;;5001229;28;20030;-81
2021/05/06 05:19:39;;;;;;;3.45;1.00;;;;;;;;;;4989448;28;20045;-80
2021/05/06 05:27:22;;;;;;;2.42;0.95;;;;;;;;;;4989351;28;20073;-80
2021/05/06 05:29:48;;;;;;;4.28;1.13;;;;;;;;;;4989372;28;20026;-80
2021/05/06 05:32:14;;;;;;;3.90;1.10;;;;;;;;;;4997903;28;20447;-81
2021/05/06 05:34:44;;;;;;;2.97;1.25;;;;;;;;;;4984804;28;20042;-81
2021/05/06 05:37:17;;;;;;;3.65;1.15;;;;;;;;;;4997682;28;20480;-81
2021/05/06 05:39:57;;;;;;;3.65;0.90;;;;;;;;;;4993349;28;20025;-81
2021/05/06 05:55:47;;;;;;;5.75;1.25;;;;;;;;;;4990267;28;20045;-81
2021/05/06 05:58:13;;;;;;;3.00;1.05;;;;;;;;;;4995590;28;20022;-80
2021/05/06 06:00:39;;;;;;;2.10;0.90;;;;;;;;;;4995759;28;20057;-80
2021/05/06 06:03:05;;;;;;;1.63;0.95;;;;;;;;;;4991964;28;20074;-80
2021/05/06 06:05:31;;;;;;;2.72;1.10;;;;;;;;;;4994418;28;20033;-81
2021/05/06 06:07:57;;;;;;;1.95;1.02;;;;;;;;;;4993899;28;20034;-81
2021/05/06 06:10:23;;;;;;;3.40;1.30;;;;;;;;;;4996740;28;20056;-81
2021/05/06 06:12:50;;;;;;;2.88;1.20;;;;;;;;;;5005017;28;20030;-82
2021/05/06 06:15:49;;;;;;;5.45;1.35;;;;;;;;;;4995784;28;20072;-82
2021/05/06 06:18:15;;;;;;;2.95;1.10;;;;;;;;;;5001823;28;20128;-81
2021/05/06 06:20:44;;;;;;;;;;;;;;;;;;4998906;28;20414;-81
2021/05/06 06:23:10;;;;;;;1.58;1.00;;;;;;;;;;4993628;28;19917;-81
2021/05/06 06:25:36;;;;;;;2.92;1.10;;;;;;;;;;5004507;28;20022;-81
2021/05/06 06:28:02;;;;;;;2.50;1.15;;;;;;;;;;4972467;28;20089;-82
2021/05/06 06:30:28;;;;;;;3.83;1.20;;;;;;;;;;4994648;28;20438;-82
2021/05/06 06:32:54;;;;;;;1.55;1.00;;;;;;;;;;4994103;28;20030;-82
2021/05/06 06:35:21;;;;;;;2.92;1.08;;;;;;;;;;4992476;28;20136;-82
2021/05/06 06:37:47;;;;;;;1.55;1.10;;;;;;;;;;4994200;28;20018;-82
2021/05/06 06:40:13;;;;;;;2.28;1.00;;;;;;;;;;4989848;28;20030;-82
2021/05/06 06:42:39;;;;;;;4.20;1.30;;;;;;;;;;4994207;28;20398;-82
2021/05/06 06:45:06;;;;;;;5.75;1.13;;;;;;;;;;4993231;28;20407;-82
2021/05/06 06:47:32;;;;;;;1.58;0.98;;;;;;;;;;4982660;28;20184;-82
2021/05/06 06:49:58;;;;;;;3.65;1.15;;;;;;;;;;5003160;28;20088;-82
2021/05/06 06:52:24;;;;;;;3.00;1.20;;;;;;;;;;4992455;28;20022;-82
2021/05/06 06:54:50;;;;;;;7.00;1.30;;;;;;;;;;4994788;28;20022;-82
2021/05/06 06:57:16;;;;;;;2.67;1.02;;;;;;;;;;4993749;28;20029;-82
2021/05/06 06:59:42;;;;;;;2.67;1.20;;;;;;;;;;4992467;28;20026;-82
2021/05/06 07:02:08;;;;;;;2.33;1.08;;;;;;;;;;4993838;28;20026;-82
2021/05/06 07:04:34;;;;;;;2.85;0.98;;;;;;;;;;4997957;28;20402;-82
2021/05/06 07:07:00;;;;;;;1.50;0.77;;;;;;;;;;4977069;28;20041;-83
2021/05/06 07:09:26;;;;;;;1.70;0.90;;;;;;;;;;4999556;28;20050;-82
2021/05/06 07:11:52;;;;;;;2.03;0.90;;;;;;;;;;5002031;28;20360;-82
2021/05/06 07:14:18;;;;;;;1.48;0.85;;;;;;;;;;4987756;28;20022;-82
2021/05/06 07:16:44;;;;;;;5.72;1.40;;;;;;;;;;4993427;28;20081;-82
2021/05/06 07:19:10;;;;;;;4.03;1.55;;;;;;;;;;5006877;28;20412;-82
2021/05/06 07:21:36;;;;;;;4.40;1.40;;;;;;;;;;4998844;28;20056;-82
2021/05/06 07:24:02;;;;;;;3.30;1.30;;;;;;;;;;4997712;28;20066;-83
2021/05/06 07:26:28;;;;;;;4.45;1.20;;;;;;;;;;4997072;28;20053;-82
2021/05/06 07:28:54;;;;;;;4.18;1.30;;;;;;;;;;4997450;28;20038;-83
2021/05/06 07:31:21;;;;;;;3.13;1.08;;;;;;;;;;4994426;28;20396;-82
2021/05/06 07:33:48;;;;;;;2.47;0.95;;;;;;;;;;4979530;28;20053;-82
2021/05/06 07:36:14;;;;;;;2.63;1.03;;;;;;;;;;4998664;28;20026;-82
2021/05/06 07:38:40;;;;;;;1.48;0.90;;;;;;;;;;4995892;28;20027;-81
2021/05/06 07:41:07;;;;;;;1.65;1.00;;;;;;;;;;4995356;28;20485;-83
2021/05/06 07:43:33;;;;;;;3.78;0.90;;;;;;;;;;4994413;28;20067;-82
2021/05/06 07:45:59;;;;;;;2.05;0.82;;;;;;;;;;4994478;28;20058;-82
2021/05/06 07:48:26;;;;;;;2.25;0.80;;;;;;;;;;5010338;28;20030;-82
2021/05/06 07:50:52;;;;;;;2.95;0.90;;;;;;;;;;4996759;28;20046;-82
2021/05/06 07:53:25;;;;;;;3.63;1.02;;;;;;;;;;4997666;28;20026;-83
2021/05/06 07:55:52;;;;;;;2.70;0.77;;;;;;;;;;4997449;28;20113;-83
2021/05/06 07:58:18;;;;;;;1.77;0.70;;;;;;;;;;4994256;28;20046;-82
2021/05/06 08:00:44;;;;;;;1.98;0.90;;;;;;;;;;4997632;28;20453;-82
2021/05/06 08:03:10;;;;;;;2.15;0.75;;;;;;;;;;4997045;28;20037;-82
2021/05/06 08:05:36;;;;;;;1.77;0.88;;;;;;;;;;4997158;28;20026;-82
2021/05/06 08:08:03;;;;;;;3.05;0.93;;;;;;;;;;4995966;28;20109;-83
2021/05/06 08:10:29;;;;;;;1.13;0.95;;;;;;;;;;4993447;28;20083;-83
2021/05/06 08:12:56;;;;;;;1.88;0.50;;;;;;;;;;4992645;28;20049;-83
2021/05/06 08:15:22;;;;;;;1.42;0.80;;;;;;;;;;4996742;28;20022;-83
2021/05/06 08:17:50;;;;;;;1.77;0.88;;;;;;;;;;4994092;28;20022;-83
2021/05/06 08:20:16;;;;;;;1.33;0.60;;;;;;;;;;4993377;28;20037;-83
2021/05/06 08:22:42;;;;;;;2.28;0.75;;;;;;;;;;4993715;28;20076;-83
2021/05/06 08:25:09;;;;;;;2.65;0.70;;;;;;;;;;4975613;28;20432;-83
2021/05/06 08:27:35;;;;;;;2.75;1.08;;;;;;;;;;4999038;28;20026;-83
2021/05/06 08:30:02;;;;;;;1.45;0.90;;;;;;;;;;4996702;28;20033;-83
2021/05/06 08:32:28;;;;;;;3.65;1.02;;;;;;;;;;4996877;28;20419;-83
2021/05/06 08:34:54;;;;;;;2.35;1.00;;;;;;;;;;4996776;28;20026;-83
2021/05/06 08:37:20;;;;;;;1.17;0.70;;;;;;;;;;4992813;28;20116;-83
2021/05/06 08:39:47;;;;;;;3.08;0.90;;;;;;;;;;5009201;28;20032;-83
2021/05/06 08:42:14;;;;;;;1.77;0.90;;;;;;;;;;4997285;28;20105;-82
2021/05/06 08:44:41;;;;;;;2.13;0.90;;;;;;;;;;4996755;28;20034;-83
2021/05/06 08:47:12;;;;;;;1.73;0.80;;;;;;;;;;4996782;28;20045;-83
2021/05/06 08:49:38;;;;;;;3.83;0.93;;;;;;;;;;4996143;28;20045;-83
2021/05/06 08:52:08;;;;;;;1.67;0.85;;;;;;;;;;4975008;28;20384;-82
2021/05/06 08:54:35;;;;;;;1.85;0.90;;;;;;;;;;4996922;28;20041;-82
2021/05/06 08:57:01;;;;;;;3.33;1.00;;;;;;;;;;4995099;28;20069;-82
2021/05/06 08:59:27;;;;;;;1.60;0.70;;;;;;;;;;4995041;28;20035;-83
2021/05/06 09:01:57;;;;;;;3.42;0.80;;;;;;;;;;4995121;28;20061;-83
2021/05/06 09:04:23;;;;;;;1.95;0.70;;;;;;;;;;4993603;28;20034;-81
2021/05/06 09:06:55;;;;;;;1.80;0.90;;;;;;;;;;4995940;28;20034;-82
2021/05/06 09:09:22;;;;;;;1.45;0.70;;;;;;;;;;4995122;28;20431;-82
2021/05/06 09:11:51;;;;;;;1.70;0.77;;;;;;;;;;4996317;28;20022;-82
2021/05/06 09:14:18;;;;;;;1.27;0.55;;;;;;;;;;4996072;28;20542;-82
2021/05/06 09:16:45;;;;;;;1.48;0.70;;;;;;;;;;4996054;28;20032;-81
2021/05/06 09:19:14;;;;;;;1.02;0.70;;;;;;;;;;4991859;28;20033;-82
2021/05/06 09:21:42;;;;;;;1.52;0.80;;;;;;;;;;5004876;28;20079;-83
2021/05/06 09:24:09;;;;;;;1.88;0.63;;;;;;;;;;4994662;28;20030;-82
2021/05/06 09:26:35;;;;;;;1.67;0.70;;;;;;;;;;4979841;28;20141;-82
2021/05/06 09:29:03;;;;;;;1.58;0.77;;;;;;;;;;4996398;28;20021;-82
2021/05/06 09:31:29;;;;;;;2.08;0.73;;;;;;;;;;4993753;28;20093;-82
2021/05/06 09:33:55;;;;;;;3.25;1.05;;;;;;;;;;4976708;28;20031;-82
2021/05/06 09:36:24;;;;;;;3.63;1.08;;;;;;;;;;4995492;28;20496;-82
2021/05/06 09:38:54;;;;;;;2.17;0.80;;;;;;;;;;4994494;28;20084;-83
2021/05/06 09:41:22;;;;;;;1.45;0.82;;;;;;;;;;4994255;28;20023;-84
2021/05/06 09:43:48;;;;;;;;;;;;;;;;;;4996732;28;20087;-85
2021/05/06 09:46:25;;;;;;;3.65;0.88;;;;;;;;;;4991969;28;19948;-85
2021/05/06 09:49:07;;;;;;;4.22;0.95;;;;;;;;;;4994192;28;20038;-83
2021/05/06 09:51:33;;;;;;;3.20;1.38;;;;;;;;;;4995285;28;20038;-84
2021/05/06 09:53:59;;;;;;;2.40;1.00;;;;;;;;;;4993940;28;20022;-84
2021/05/06 09:56:26;;;;;;;1.80;0.63;;;;;;;;;;4994016;28;20589;-83
2021/05/06 09:58:56;;;;;;;1.70;1.00;;;;;;;;;;4994858;28;20018;-84
2021/05/06 10:01:23;;;;;;;2.60;0.75;;;;;;;;;;4992950;28;20058;-83
2021/05/06 10:03:49;;;;;;;2.22;0.90;;;;;;;;;;4994748;28;20030;-84
2021/05/06 10:06:17;;;;;;;1.48;0.77;;;;;;;;;;4993700;28;20069;-83
2021/05/06 10:08:43;;;;;;;2.92;0.85;;;;;;;;;;4993797;28;20022;-83
2021/05/06 10:11:14;;;;;;;1.73;0.88;;;;;;;;;;4995272;28;20031;-83
2021/05/06 10:13:41;;;;;;;2.40;0.90;;;;;;;;;;4993599;28;20093;-83
2021/05/06 10:16:08;;;;;;;3.22;0.90;;;;;;;;;;4990887;28;20085;-83
2021/05/06 10:18:35;;;;;;;2.17;1.10;;;;;;;;;;5001931;28;20038;-83
2021/05/06 10:21:01;;;;;;;1.10;0.90;;;;;;;;;;4990633;28;20097;-83
2021/05/06 10:23:27;;;;;;;2.75;0.95;;;;;;;;;;4993055;28;20090;-83
2021/05/06 10:25:54;;;;;;;3.05;1.00;;;;;;;;;;4994087;28;20022;-82
2021/05/06 10:28:21;;;;;;;2.67;1.02;;;;;;;;;;4989382;28;20031;-82
2021/05/06 10:30:47;;;;;;;2.42;0.98;;;;;;;;;;4993533;28;20030;-83
2021/05/06 10:33:14;;;;;;;2.45;1.08;;;;;;;;;;5002436;28;20033;-82
2021/05/06 10:35:41;;;;;;;3.15;1.42;;;;;;;;;;4989197;28;20026;-83
2021/05/06 10:38:07;;;;;;;3.80;1.30;;;;;;;;;;4995918;28;20096;-82
2021/05/06 10:40:34;;;;;;;5.40;1.40;;;;;;;;;;4996366;28;20368;-83
2021/05/06 10:43:20;;;;;;;2.67;1.30;;;;;;;;;;4994230;28;25228;-83
2021/05/06 10:46:00;;;;;;;4.93;1.40;;;;;;;;;;5007301;28;20360;-83
2021/05/06 10:48:45;;;;;;;3.35;1.33;;;;;;;;;;4994799;28;20361;-83
2021/05/06 10:51:39;;;;;;;5.82;1.40;;;;;;;;;;4996551;28;20508;-83
2021/05/06 10:54:24;;;;;;;3.03;1.20;;;;;;;;;;4996307;28;20042;-84
2021/05/06 10:56:50;;;;;;;5.53;1.50;;;;;;;;;;4980842;28;20782;-83
2021/05/06 10:59:29;;;;;;;4.07;1.60;;;;;;;;;;4997957;28;20126;-83
2021/05/06 11:01:56;;;;;;;3.75;1.90;;;;;;;;;;4991972;28;20034;-83
2021/05/06 11:04:36;;;;;;;2.35;1.50;;;;;;;;;;4992688;28;20431;-83
2021/05/06 11:07:23;;;;;;;4.93;1.85;;;;;;;;;;4994225;28;20149;-82
2021/05/06 11:09:50;;;;;;;7.90;1.95;;;;;;;;;;5006605;28;20026;-83
2021/05/06 11:12:17;;;;;;;4.82;2.20;;;;;;;;;;4999566;28;20396;-83
2021/05/06 11:15:02;;;;;;;6.97;2.05;;;;;;;;;;4998243;28;20094;-83
2021/05/06 11:17:41;;;;;;;4.70;2.05;;;;;;;;;;4997787;28;20025;-82
2021/05/06 11:20:10;;;;;;;3.38;1.70;;;;;;;;;;4996410;28;20023;-82
2021/05/06 11:22:53;;;;;;;4.63;2.08;;;;;;;;;;4995315;28;20032;-82
2021/05/06 11:25:29;;;;;;;4.55;1.98;;;;;;;;;;4978992;28;20038;-83
2021/05/06 11:27:55;;;;;;;8.88;2.47;;;;;;;;;;4994122;28;20026;-82
2021/05/06 11:30:35;;;;;;;4.70;1.80;;;;;;;;;;4979111;28;20395;-82
2021/05/06 11:33:16;;;;;;;4.35;1.98;;;;;;;;;;4973606;28;20471;-82
2021/05/06 11:35:57;;;;;;;5.72;2.20;;;;;;;;;;4996431;28;20058;-82
2021/05/06 11:38:29;;;;;;;3.35;1.77;;;;;;;;;;4999431;28;20030;-82
2021/05/06 11:40:59;;;;;;;4.15;2.03;;;;;;;;;;5006807;28;20030;-83
2021/05/06 11:43:25;;;;;;;3.63;1.90;;;;;;;;;;4993827;28;20128;-82
2021/05/06 11:46:02;;;;;;;4.53;1.98;;;;;;;;;;4996731;28;20499;-81
2021/05/06 11:48:38;;;;;;;4.25;2.20;;;;;;;;;;4999714;28;20420;-82
2021/05/06 11:51:08;;;;;;;4.82;2.25;;;;;;;;;;5004743;28;20109;-82
2021/05/06 11:53:35;;;;;;;4.30;2.05;;;;;;;;;;4984161;28;20129;-82
2021/05/06 11:56:13;;;;;;;5.20;2.28;;;;;;;;;;4998735;28;20490;-82
2021/05/06 11:58:43;;;;;;;5.22;1.98;;;;;;;;;;4998807;28;20046;-82
2021/05/06 12:01:10;;;;;;;6.10;2.17;;;;;;;;;;4992201;28;20026;-82
2021/05/06 12:03:40;;;;;;;5.20;1.77;;;;;;;;;;4998165;28;20424;-82
2021/05/06 12:06:07;;;;;;;5.03;1.70;;;;;;;;;;4997911;28;20034;-82
2021/05/06 12:08:42;;;;;;;7.03;2.35;;;;;;;;;;4997408;28;20368;-83
2021/05/06 12:11:09;;;;;;;4.32;2.28;;;;;;;;;;4995479;28;20026;-84
2021/05/06 12:13:36;;;;;;;6.70;2.20;;;;;;;;;;5000506;28;20030;-82
2021/05/06 12:16:35;;;;;;;3.08;1.58;;;;;;;;;;5007564;28;20049;-82
2021/05/06 12:19:03;;;;;;;5.32;2.13;;;;;;;;;;4985885;28;20050;-83
2021/05/06 12:21:29;;;;;;;;;;;;;;;;;;4998375;28;20022;-81
2021/05/06 12:23:57;;;;;;;4.63;2.05;;;;;;;;;;5007339;28;19984;-81
2021/05/06 12:26:23;;;;;;;6.20;2.17;;;;;;;;;;5001041;28;20015;-83
2021/05/06 12:28:49;;;;;;;4.60;2.10;;;;;;;;;;4999028;28;20030;-81
2021/05/06 12:31:15;;;;;;;3.47;2.20;;;;;;;;;;5007962;28;20450;-83
2021/05/06 12:33:41;;;;;;;6.80;2.25;;;;;;;;;;4997571;28;20030;-83
2021/05/06 12:36:11;;;;;;;5.18;2.25;;;;;;;;;;4994332;28;20023;-83
2021/05/06 12:38:38;;;;;;;4.55;2.20;;;;;;;;;;4999393;28;20117;-83
2021/05/06 12:41:05;;;;;;;6.75;3.20;;;;;;;;;;4996250;28;20034;-83
2021/05/06 12:43:32;;;;;;;5.82;2.67;;;;;;;;;;4990262;28;20038;-83
2021/05/06 12:46:20;;;;;;;9.77;2.80;;;;;;;;;;4996860;28;20018;-83
2021/05/06 12:48:53;;;;;;;5.13;2.90;;;;;;;;;;5006241;28;20049;-83
2021/05/06 12:51:20;;;;;;;6.20;2.45;;;;;;;;;;4995389;28;20061;-82
2021/05/06 12:54:06;;;;;;;5.72;2.85;;;;;;;;;;5011103;28;20065;-83
2021/05/06 12:56:36;;;;;;;7.55;2.80;;;;;;;;;;5011819;28;20363;-82
2021/05/06 12:59:21;;;;;;;10.43;2.88;;;;;;;;;;5009966;28;20044;-82
2021/05/06 13:01:47;;;;;;;7.75;2.70;;;;;;;;;;4998877;28;20065;-82
2021/05/06 13:04:13;;;;;;;6.38;2.60;;;;;;;;;;4992849;28;20042;-82
2021/05/06 13:06:39;;;;;;;5.90;2.70;;;;;;;;;;4998851;28;20090;-83
2021/05/06 13:09:14;;;;;;;6.78;2.75;;;;;;;;;;4996967;28;20045;-82
2021/05/06 13:11:40;;;;;;;5.15;3.03;;;;;;;;;;5001138;28;20026;-82
2021/05/06 13:14:06;;;;;;;6.82;2.60;;;;;;;;;;4982358;28;20034;-83
2021/05/06 13:16:40;;;;;;;7.95;2.88;;;;;;;;;;4993846;28;20026;-82
2021/05/06 13:19:07;;;;;;;4.43;2.33;;;;;;;;;;4994759;28;20022;-82
2021/05/06 13:21:34;;;;;;;5.75;2.70;;;;;;;;;;5001000;28;20072;-83
2021/05/06 13:24:02;;;;;;;6.43;2.78;;;;;;;;;;5009481;28;20085;-83
2021/05/06 13:26:38;;;;;;;7.15;3.60;;;;;;;;;;5013969;28;20026;-82
2021/05/06 13:29:08;;;;;;;5.07;2.78;;;;;;;;;;4987378;28;20038;-83
2021/05/06 13:31:36;;;;;;;5.35;2.50;;;;;;;;;;4996938;28;20072;-83
2021/05/06 13:34:16;;;;;;;4.28;2.00;;;;;;;;;;4996976;28;20034;-83
2021/05/06 13:36:43;;;;;;;7.95;2.78;;;;;;;;;;5004335;28;20030;-83
2021/05/06 13:39:10;;;;;;;7.32;3.60;;;;;;;;;;4996023;28;20089;-83
2021/05/06 13:41:40;;;;;;;8.65;3.33;;;;;;;;;;4994908;28;20076;-83
2021/05/06 13:44:07;;;;;;;8.27;2.80;;;;;;;;;;5000527;28;20041;-82
2021/05/06 13:46:34;;;;;;;7.63;2.97;;;;;;;;;;4995976;28;20018;-82
2021/05/06 13:49:00;;;;;;;6.78;3.03;;;;;;;;;;4994985;28;20380;-82
2021/05/06 13:51:27;;;;;;;5.95;3.00;;;;;;;;;;4996810;28;20062;-82
2021/05/06 13:53:53;;;;;;;5.15;2.58;;;;;;;;;;4996712;28;20046;-82
2021/05/06 13:56:19;;;;;;;8.13;3.35;;;;;;;;;;4997144;28;20026;-82
2021/05/06 13:58:45;;;;;;;6.25;2.80;;;;;;;;;;4996972;28;20383;-81
2021/05/06 14:01:13;;;;;;;4.40;2.42;;;;;;;;;;4993347;28;20494;-81
2021/05/06 14:03:39;;;;;;;5.60;3.10;;;;;;;;;;4990076;28;20035;-82
2021/05/06 14:06:05;;;;;;;6.55;3.35;;;;;;;;;;4997117;28;20117;-82
2021/05/06 14:08:32;;;;;;;5.60;3.20;;;;;;;;;;4993425;28;20034;-82
2021/05/06 14:10:58;;;;;;;4.28;2.22;;;;;;;;;;4994312;28;20110;-81
2021/05/06 14:13:24;;;;;;;4.55;2.00;;;;;;;;;;4991213;28;20071;-83
2021/05/06 14:15:50;;;;;;;1.70;1.30;;;;;;;;;;4995057;28;20027;-83
2021/05/06 14:18:17;;;;;;;3.60;1.40;;;;;;;;;;4997515;28;20033;-81
2021/05/06 14:20:43;;;;;;;4.05;1.13;;;;;;;;;;4995216;28;20479;-81
2021/05/06 14:23:10;;;;;;;2.38;1.17;;;;;;;;;;4999327;28;20042;-81
2021/05/06 14:25:37;;;;;;;2.58;1.30;;;;;;;;;;4994679;28;20049;-83
2021/05/06 14:28:03;;;;;;;2.92;1.13;;;;;;;;;;4998021;28;20118;-82
2021/05/06 14:30:29;;;;;;;3.75;1.10;;;;;;;;;;4996160;28;20097;-81
2021/05/06 14:32:55;;;;;;;3.35;1.30;;;;;;;;;;5002102;28;20038;-83
2021/05/06 14:35:22;;;;;;;4.20;1.30;;;;;;;;;;5004075;28;20415;-81
2021/05/06 14:37:48;;;;;;;2.60;1.30;;;;;;;;;;5002426;28;20312;-81
2021/05/06 14:40:14;;;;;;;2.28;0.93;;;;;;;;;;4990366;28;20029;-82
2021/05/06 14:42:40;;;;;;;3.80;1.48;;;;;;;;;;4999199;28;20033;-82
2021/05/06 14:45:08;;;;;;;2.53;1.40;;;;;;;;;;4994544;28;20383;-82
2021/05/06 14:47:35;;;;;;;1.95;1.02;;;;;;;;;;4991558;28;20087;-82
2021/05/06 14:50:01;;;;;;;1.27;0.80;;;;;;;;;;4992045;28;20108;-82
2021/05/06 14:52:27;;;;;;;2.30;1.30;;;;;;;;;;4980556;28;20275;-82
2021/05/06 14:54:53;;;;;;;5.05;1.40;;;;;;;;;;5001486;28;20030;-82
2021/05/06 14:57:19;;;;;;;3.13;1.45;;;;;;;;;;5006188;28;20022;-82
2021/05/06 14:59:45;;;;;;;2.40;1.15;;;;;;;;;;4995729;28;20034;-82
2021/05/06 15:02:11;;;;;;;1.85;1.08;;;;;;;;;;4974254;28;20093;-82
2021/05/06 15:04:37;;;;;;;2.83;1.30;;;;;;;;;;4983924;28;20069;-82
2021/05/06 15:07:03;;;;;;;2.92;1.45;;;;;;;;;;4989253;28;20510;-82
2021/05/06 15:09:29;;;;;;;2.20;1.20;;;;;;;;;;4995024;28;20085;-82
2021/05/06 15:11:56;;;;;;;4.30;1.52;;;;;;;;;;4990159;28;20022;-82
2021/05/06 15:14:23;;;;;;;2.58;1.60;;;;;;;;;;4993384;28;20026;-81
2021/05/06 15:16:49;;;;;;;4.85;2.03;;;;;;;;;;4991533;28;20034;-82
2021/05/06 15:19:15;;;;;;;3.40;1.73;;;;;;;;;;4971907;28;20070;-83
2021/05/06 15:21:41;;;;;;;3.53;1.45;;;;;;;;;;4971808;28;20030;-82
2021/05/06 15:24:08;;;;;;;3.50;1.80;;;;;;;;;;4989595;28;20050;-82
2021/05/06 15:26:36;;;;;;;2.97;1.58;;;;;;;;;;4989992;28;20030;-82
2021/05/06 15:29:02;;;;;;;2.83;1.63;;;;;;;;;;5001255;28;20045;-82
2021/05/06 15:31:28;;;;;;;3.97;1.52;;;;;;;;;;4989829;28;20042;-82
2021/05/06 15:33:54;;;;;;;2.50;1.42;;;;;;;;;;4971173;28;20034;-82
2021/05/06 15:36:22;;;;;;;3.85;1.73;;;;;;;;;;4998220;28;20030;-82
2021/05/06 15:38:48;;;;;;;6.67;2.20;;;;;;;;;;4996726;28;20029;-82
2021/05/06 15:41:14;;;;;;;2.92;1.65;;;;;;;;;;4996380;28;20284;-82
2021/05/06 15:43:40;;;;;;;2.83;1.50;;;;;;;;;;4996394;28;20065;-82
2021/05/06 15:46:06;;;;;;;3.20;1.42;;;;;;;;;;4993400;28;20030;-81
2021/05/06 15:48:35;;;;;;;3.13;1.50;;;;;;;;;;4998883;28;20025;-81
2021/05/06 15:51:01;;;;;;;;;;;;;;;;;;4997572;28;20058;-82
2021/05/06 15:53:27;;;;;;;2.13;1.20;;;;;;;;;;4989068;28;19921;-82
2021/05/06 15:55:55;;;;;;;4.72;1.73;;;;;;;;;;4996797;28;20694;-82
2021/05/06 15:58:21;;;;;;;3.63;1.58;;;;;;;;;;4993365;28;20023;-82
2021/05/06 16:00:47;;;;;;;2.85;1.30;;;;;;;;;;4996473;28;20037;-82
2021/05/06 16:03:15;;;;;;;5.07;1.88;;;;;;;;;;4996647;28;20117;-82
2021/05/06 16:05:47;;;;;;;8.02;1.88;;;;;;;;;;4994841;28;20415;-82
2021/05/06 16:08:13;;;;;;;4.63;2.03;;;;;;;;;;4994482;28;20383;-82
2021/05/06 16:10:39;;;;;;;3.58;1.48;;;;;;;;;;4979531;28;20035;-83
2021/05/06 16:13:05;;;;;;;5.07;2.10;;;;;;;;;;4960195;28;20031;-82
2021/05/06 16:15:32;;;;;;;3.55;2.28;;;;;;;;;;4975042;28;20452;-82
2021/05/06 16:17:58;;;;;;;5.18;1.90;;;;;;;;;;4993385;28;20038;-84
2021/05/06 16:20:32;;;;;;;4.40;1.33;;;;;;;;;;4993745;28;20030;-84
2021/05/06 16:22:58;;;;;;;4.25;1.65;;;;;;;;;;4992718;28;20054;-84
2021/05/06 16:25:24;;;;;;;3.65;1.83;;;;;;;;;;4988227;28;20030;-82
2021/05/06 16:27:50;;;;;;;3.95;1.42;;;;;;;;;;4983321;28;20030;-82
2021/05/06 16:30:16;;;;;;;2.85;1.65;;;;;;;;;;4966630;28;20038;-83
2021/05/06 16:32:43;;;;;;;3.13;1.75;;;;;;;;;;4971726;28;20022;-82
2021/05/06 16:35:14;;;;;;;6.05;2.45;;;;;;;;;;4996021;28;20029;-82
2021/05/06 16:37:51;;;;;;;2.55;1.52;;;;;;;;;;5005229;28;20072;-82
2021/05/06 16:43:09;;;;;;;3.47;1.92;;;;;;;;;;4994201;28;20041;-85
2021/05/06 16:45:31;;;;;;;2.25;1.73;;;;;;;;;;4995523;28;20081;-84
2021/05/06 16:47:57;;;;;;;4.82;2.70;;;;;;;;;;5002984;28;20041;-83
2021/05/06 16:50:23;;;;;;;1.80;1.17;;;;;;;;;;4995846;28;20074;-83
2021/05/06 16:52:49;;;;;;;1.85;1.30;;;;;;;;;;4983035;28;20029;-83
2021/05/06 16:55:16;;;;;;;4.35;1.58;;;;;;;;;;4990681;28;20034;-85
2021/05/06 16:57:42;;;;;;;3.55;1.80;;;;;;;;;;5005230;28;20026;-87
2021/05/06 17:00:09;;;;;;;2.88;1.48;;;;;;;;;;5009687;28;20033;-82
2021/05/06 17:02:35;;;;;;;3.45;1.65;;;;;;;;;;4998291;28;20117;-81
2021/05/06 17:05:01;;;;;;;4.10;1.73;;;;;;;;;;4993706;28;20037;-82
2021/05/06 17:07:27;;;;;;;3.78;1.92;;;;;;;;;;4992109;28;20104;-81
2021/05/06 17:09:53;;;;;;;3.53;1.60;;;;;;;;;;4991933;28;20479;-81
2021/05/06 17:12:19;;;;;;;2.50;1.67;;;;;;;;;;4995608;28;20034;-81
2021/05/06 17:14:45;;;;;;;3.38;1.50;;;;;;;;;;4998823;28;20034;-81
2021/05/06 17:17:11;;;;;;;8.57;4.10;;;;;;;;;;5006036;28;20029;-82
2021/05/06 17:19:37;;;;;;;5.13;2.40;;;;;;;;;;5014742;28;20025;-82
2021/05/06 17:22:03;;;;;;;5.50;3.47;;;;;;;;;;5001475;28;20030;-83
2021/05/06 17:24:31;;;;;;;2.45;1.60;;;;;;;;;;5011815;28;20033;-82
2021/05/06 17:26:58;;;;;;;2.03;1.40;;;;;;;;;;4994216;28;20027;-82
2021/05/06 17:29:24;;;;;;;4.38;1.80;;;;;;;;;;4995097;28;20418;-82
2021/05/06 17:31:50;;;;;;;4.35;2.00;;;;;;;;;;5005319;28;20474;-81
2021/05/06 17:34:16;;;;;;;4.47;2.00;;;;;;;;;;4989303;28;20050;-81
2021/05/06 17:36:42;;;;;;;4.13;2.08;;;;;;;;;;4996456;28;20083;-81
2021/05/06 17:39:08;;;;;;;2.10;1.30;;;;;;;;;;4994575;28;20031;-81
2021/05/06 17:41:34;;;;;;;4.72;1.88;;;;;;;;;;4989803;28;20022;-81
2021/05/06 17:44:01;;;;;;;2.85;1.50;;;;;;;;;;4994762;28;20046;-80
2021/05/06 17:46:27;;;;;;;3.90;1.80;;;;;;;;;;5000807;28;20149;-81
2021/05/06 17:48:53;;;;;;;3.30;1.85;;;;;;;;;;4977080;28;20113;-81
2021/05/06 17:51:19;;;;;;;3.95;1.90;;;;;;;;;;4994177;28;20050;-81
2021/05/06 17:53:45;;;;;;;4.15;2.40;;;;;;;;;;4979867;28;20056;-81
2021/05/06 17:56:11;;;;;;;3.97;2.30;;;;;;;;;;4994193;28;20088;-80
2021/05/06 17:58:39;;;;;;;2.65;1.52;;;;;;;;;;4978812;28;20053;-82
2021/05/06 18:01:05;;;;;;;2.45;1.60;;;;;;;;;;4989289;28;20144;-82
2021/05/06 18:03:32;;;;;;;2.47;1.80;;;;;;;;;;4999748;28;20428;-81
2021/05/06 18:05:59;;;;;;;3.67;1.65;;;;;;;;;;4993099;28;20026;-80
2021/05/06 18:08:25;;;;;;;2.85;1.55;;;;;;;;;;4993775;28;20025;-81
2021/05/06 18:11:19;;;;;;;2.67;1.58;;;;;;;;;;4995133;28;20054;-81
2021/05/06 18:13:46;;;;;;;6.63;2.10;;;;;;;;;;5005124;28;20084;-81
2021/05/06 18:16:12;;;;;;;2.88;1.95;;;;;;;;;;4963709;28;20023;-81
2021/05/06 18:18:38;;;;;;;3.97;2.00;;;;;;;;;;5004357;28;20022;-81
2021/05/06 18:21:04;;;;;;;3.83;2.20;;;;;;;;;;4999770;28;20030;-83